createdAt,value
2022-12-09T08:55:42.900Z,15.13
2022-12-09T08:58:09.849Z,14.70
2022-12-09T09:00:37.105Z,15.25
2022-12-09T09:03:04.882Z,16.67
2022-12-09T09:05:32.136Z,18.25
2022-12-09T09:08:00.181Z,17.95
2022-12-09T09:10:27.778Z,18.77
2022-12-09T09:12:54.901Z,23.00
2022-12-09T09:15:22.038Z,29.98
2022-12-09T09:17:51.839Z,19.13
2022-12-09T09:20:19.970Z,17.00
2022-12-09T09:22:47.049Z,16.63
2022-12-09T09:25:14.693Z,16.88
2022-12-09T09:27:42.092Z,16.63
2022-12-09T09:30:09.789Z,17.63
2022-12-09T09:32:37.327Z,17.25
2022-12-09T09:35:04.575Z,18.45
2022-12-09T09:37:32.322Z,17.60
2022-12-09T09:39:59.083Z,17.25
2022-12-09T09:42:48.501Z,16.67
2022-12-09T09:45:19.945Z,16.88
2022-12-09T09:47:58.453Z,18.52
2022-12-09T09:50:37.837Z,22.63
2022-12-09T09:53:21.509Z,18.95
2022-12-09T09:55:54.812Z,16.00
2022-12-09T09:58:27.931Z,18.38
2022-12-09T10:01:06.265Z,16.88
2022-12-09T10:03:52.400Z,16.90
2022-12-09T10:06:47.088Z,17.17
2022-12-09T10:09:24.638Z,17.25
2022-12-09T10:11:56.265Z,17.40
2022-12-09T10:14:49.490Z,16.73
2022-12-09T10:17:32.183Z,18.20
2022-12-09T10:20:07.938Z,16.40
2022-12-09T10:22:42.312Z,16.33
2022-12-09T10:25:23.053Z,15.07
2022-12-09T10:27:52.705Z,16.38
2022-12-09T10:30:20.715Z,14.60
2022-12-09T10:32:47.797Z,15.80
2022-12-09T10:35:18.897Z,15.30
2022-12-09T10:37:47.885Z,20.80
2022-12-09T10:40:23.328Z,16.00
2022-12-09T10:43:12.389Z,15.20
2022-12-09T10:46:22.404Z,16.85
2022-12-09T10:48:47.570Z,15.93
2022-12-09T10:51:30.164Z,17.08
2022-12-09T10:54:19.342Z,14.45
2022-12-09T10:57:26.615Z,17.85
2022-12-09T11:00:03.285Z,20.33
2022-12-09T11:02:32.212Z,16.38
2022-12-09T11:05:33.914Z,16.90
2022-12-09T11:08:01.277Z,18.20
2022-12-09T11:10:30.144Z,18.02
2022-12-09T11:13:08.278Z,17.70
2022-12-09T11:15:40.378Z,16.20
2022-12-09T11:18:18.559Z,16.88
2022-12-09T11:20:57.053Z,17.67
2022-12-09T11:23:24.552Z,17.00
2022-12-09T11:25:55.070Z,16.83
2022-12-09T11:28:37.895Z,17.10
2022-12-09T11:31:29.614Z,17.55
2022-12-09T11:34:02.325Z,17.02
2022-12-09T11:36:36.783Z,17.05
2022-12-09T11:39:27.528Z,15.43
2022-12-09T11:42:19.873Z,14.77
2022-12-09T11:44:56.608Z,14.60
2022-12-09T11:47:50.312Z,15.85
2022-12-09T11:50:33.021Z,16.02
2022-12-09T11:53:27.627Z,11.48
2022-12-09T11:56:27.926Z,15.67
2022-12-09T11:59:14.290Z,16.52
2022-12-09T12:02:19.056Z,16.63
2022-12-09T12:05:01.698Z,14.98
2022-12-09T12:07:51.729Z,14.32
2022-12-09T12:10:35.539Z,15.60
2022-12-09T12:13:31.935Z,15.50
2022-12-09T12:16:10.371Z,15.48
2022-12-09T12:18:45.413Z,12.38
2022-12-09T12:21:37.291Z,15.00
2022-12-09T12:24:10.226Z,14.82
2022-12-09T12:26:54.097Z,14.43
2022-12-09T12:29:40.679Z,15.60
2022-12-09T12:32:34.011Z,13.93
2022-12-09T12:35:16.014Z,15.35
2022-12-09T12:38:07.081Z,13.88
2022-12-09T12:40:43.263Z,12.55
2022-12-09T12:44:20.176Z,12.85
2022-12-09T12:46:55.369Z,13.93
2022-12-09T12:49:46.173Z,13.07
2022-12-09T12:55:30.098Z,13.50
2022-12-09T12:57:59.528Z,12.93
2022-12-09T13:00:36.202Z,14.18
2022-12-09T13:03:25.683Z,14.02
2022-12-09T13:05:56.596Z,14.05
2022-12-09T13:08:42.411Z,12.70
2022-12-09T13:11:47.152Z,12.60
2022-12-09T13:14:20.358Z,12.53
2022-12-09T13:16:48.488Z,12.48
2022-12-09T13:19:46.858Z,12.48
2022-12-09T13:22:32.701Z,13.80
2022-12-09T13:25:38.107Z,13.07
2022-12-09T13:28:41.552Z,12.95
2022-12-09T13:31:10.052Z,14.15
2022-12-09T13:34:14.336Z,14.63
2022-12-09T13:36:46.601Z,15.30
2022-12-09T13:39:42.490Z,14.20
2022-12-09T13:42:46.546Z,15.38
2022-12-09T13:45:34.287Z,13.47
2022-12-09T13:48:21.224Z,13.35
2022-12-09T13:50:57.802Z,13.05
2022-12-09T13:53:29.800Z,13.98
2022-12-09T13:55:57.857Z,14.05
2022-12-09T13:58:41.670Z,13.57
2022-12-09T14:01:11.325Z,12.40
2022-12-09T14:04:05.837Z,13.35
2022-12-09T14:06:39.711Z,15.45
2022-12-09T14:09:27.171Z,15.73
2022-12-09T14:11:55.911Z,15.75
2022-12-09T14:14:25.567Z,15.10
2022-12-09T14:16:59.662Z,20.83
2022-12-09T14:19:29.962Z,16.27
2022-12-09T14:22:19.858Z,17.15
2022-12-09T14:24:57.527Z,17.15
2022-12-09T14:27:25.388Z,15.45
2022-12-09T14:30:24.263Z,15.77
2022-12-09T14:32:50.835Z,15.57
2022-12-09T14:35:22.234Z,16.67
2022-12-09T14:38:09.788Z,16.38
2022-12-09T14:40:58.051Z,15.85
2022-12-09T14:44:07.106Z,15.98
2022-12-09T14:46:40.098Z,15.65
2022-12-09T14:49:20.521Z,15.77
2022-12-09T14:51:54.187Z,16.17
2022-12-09T14:54:36.948Z,15.40
2022-12-09T14:57:14.220Z,16.20
2022-12-09T14:59:50.440Z,15.30
2022-12-09T15:02:21.202Z,15.90
2022-12-09T15:04:49.256Z,16.25
2022-12-09T15:07:21.412Z,16.35
2022-12-09T15:10:00.273Z,19.25
2022-12-09T15:12:31.611Z,15.48
2022-12-09T15:15:21.888Z,15.90
2022-12-09T15:17:48.635Z,17.25
2022-12-09T15:20:22.998Z,21.73
2022-12-09T15:23:01.543Z,15.95
2022-12-09T15:25:28.570Z,15.55
2022-12-09T15:27:56.477Z,14.93
2022-12-09T15:30:26.452Z,16.42
2022-12-09T15:32:53.186Z,16.25
2022-12-09T15:35:25.899Z,16.67
2022-12-09T15:37:55.848Z,15.65
2022-12-09T15:40:23.084Z,16.95
2022-12-09T15:42:54.094Z,16.35
2022-12-09T15:45:24.553Z,15.52
2022-12-09T15:48:12.498Z,15.02
2022-12-09T15:50:49.824Z,16.17
2022-12-09T15:53:31.527Z,15.20
2022-12-09T15:56:05.223Z,16.67
2022-12-09T15:58:38.828Z,18.42
2022-12-09T16:01:05.973Z,21.20
2022-12-09T16:03:34.811Z,20.80
2022-12-09T16:06:06.274Z,19.00
2022-12-09T16:08:38.827Z,16.75
2022-12-09T16:11:06.421Z,17.50
2022-12-09T16:13:33.310Z,15.25
2022-12-09T16:16:02.155Z,19.48
2022-12-09T16:18:49.828Z,20.05
2022-12-09T16:21:25.611Z,18.40
2022-12-09T16:23:55.615Z,17.80
2022-12-09T16:26:30.102Z,18.50
2022-12-09T16:29:02.268Z,18.00
2022-12-09T16:31:29.662Z,20.60
2022-12-09T16:33:57.239Z,18.55
2022-12-09T16:36:30.049Z,16.98
2022-12-09T16:39:08.773Z,16.80
2022-12-09T16:42:03.133Z,15.05
2022-12-09T16:44:33.972Z,15.93
2022-12-09T16:47:16.307Z,15.73
2022-12-09T16:49:46.417Z,15.15
2022-12-09T16:52:20.521Z,15.32
2022-12-09T16:54:48.563Z,15.30
2022-12-09T16:57:17.123Z,15.18
2022-12-09T16:59:44.858Z,15.50
2022-12-09T17:02:19.714Z,15.77
2022-12-09T17:04:47.077Z,14.68
2022-12-09T17:07:13.712Z,15.82
2022-12-09T17:09:40.369Z,16.90
2022-12-09T17:12:07.208Z,16.27
2022-12-09T17:14:33.835Z,15.35
2022-12-09T17:17:02.587Z,16.35
2022-12-09T17:19:29.569Z,16.58
2022-12-09T17:21:56.218Z,17.08
2022-12-09T17:24:22.883Z,16.60
2022-12-09T17:26:49.453Z,17.70
2022-12-09T17:29:16.069Z,19.33
2022-12-09T17:31:42.749Z,16.65
2022-12-09T17:34:09.488Z,16.48
2022-12-09T17:36:36.091Z,16.52
2022-12-09T17:39:04.007Z,16.08
2022-12-09T17:41:30.619Z,15.68
2022-12-09T17:43:57.913Z,16.98
2022-12-09T17:46:25.521Z,17.42
2022-12-09T17:48:52.341Z,17.63
2022-12-09T17:51:18.953Z,17.55
2022-12-09T17:53:46.320Z,18.92
2022-12-09T17:56:15.346Z,21.60
2022-12-09T17:58:43.010Z,22.63
2022-12-09T18:01:21.697Z,22.50
2022-12-09T18:03:59.221Z,23.38
2022-12-09T18:06:34.378Z,19.98
2022-12-09T18:09:05.542Z,21.15
2022-12-09T18:11:32.937Z,21.02
2022-12-09T18:13:59.829Z,19.38
2022-12-09T18:16:26.655Z,18.90
2022-12-09T18:18:53.949Z,19.30
2022-12-09T18:21:20.899Z,18.08
2022-12-09T18:23:48.347Z,19.38
2022-12-09T18:26:17.485Z,18.88
2022-12-09T18:28:44.623Z,17.73
2022-12-09T18:31:16.908Z,17.88
2022-12-09T18:33:43.661Z,18.42
2022-12-09T18:36:14.082Z,19.17
2022-12-09T18:38:41.528Z,19.45
2022-12-09T18:41:13.005Z,17.88
2022-12-09T18:43:41.686Z,17.45
2022-12-09T18:46:24.977Z,19.13
2022-12-09T18:48:58.884Z,18.90
2022-12-09T18:51:26.372Z,17.90
2022-12-09T18:53:53.162Z,17.70
2022-12-09T18:56:20.147Z,17.60
2022-12-09T18:59:05.980Z,17.45
2022-12-09T19:01:34.098Z,19.58
2022-12-09T19:04:03.507Z,18.88
2022-12-09T19:06:33.333Z,17.33
2022-12-09T19:09:03.001Z,25.15
2022-12-09T19:11:32.793Z,27.23
2022-12-09T19:14:00.312Z,28.52
2022-12-09T19:16:28.501Z,25.13
2022-12-09T19:18:56.211Z,23.48
2022-12-09T19:21:24.741Z,21.30
2022-12-09T19:23:51.641Z,20.58
2022-12-09T19:26:21.364Z,22.02
2022-12-09T19:28:50.649Z,21.63
2022-12-09T19:31:20.185Z,20.50
2022-12-09T19:33:47.574Z,24.63
2022-12-09T19:36:14.582Z,24.88
2022-12-09T19:38:41.593Z,27.58
2022-12-09T19:41:08.367Z,35.00
2022-12-09T19:43:35.116Z,26.85
2022-12-09T19:46:03.933Z,23.20
2022-12-09T19:48:30.830Z,20.98
2022-12-09T19:51:01.377Z,18.45
2022-12-09T19:53:27.960Z,20.55
2022-12-09T19:55:54.858Z,19.38
2022-12-09T19:58:21.526Z,20.17
2022-12-09T20:00:48.093Z,23.90
2022-12-09T20:03:14.782Z,19.73
2022-12-09T20:05:48.781Z,19.17
2022-12-09T20:08:15.638Z,19.98
2022-12-09T20:10:46.372Z,19.48
2022-12-09T20:13:14.752Z,20.50
2022-12-09T20:15:42.007Z,19.55
2022-12-09T20:18:09.980Z,18.75
2022-12-09T20:20:37.568Z,18.65
2022-12-09T20:23:05.001Z,18.45
2022-12-09T20:25:36.605Z,20.38
2022-12-09T20:28:04.324Z,20.00
2022-12-09T20:30:31.830Z,18.85
2022-12-09T20:32:59.171Z,18.67
2022-12-09T20:35:26.832Z,19.02
2022-12-09T20:37:53.463Z,18.73
2022-12-09T20:40:20.042Z,19.25
2022-12-09T20:42:46.827Z,18.73
2022-12-09T20:45:13.405Z,19.50
2022-12-09T20:47:40.003Z,18.50
2022-12-09T20:50:07.303Z,18.88
2022-12-09T20:52:34.098Z,20.20
2022-12-09T20:55:00.732Z,22.40
2022-12-09T20:57:27.389Z,22.80
2022-12-09T20:59:54.063Z,23.02
2022-12-09T21:02:20.685Z,24.17
2022-12-09T21:04:47.596Z,27.85
2022-12-09T21:07:14.295Z,22.52
2022-12-09T21:09:40.995Z,20.77
2022-12-09T21:12:07.773Z,20.30
2022-12-09T21:14:36.099Z,19.67
2022-12-09T21:17:04.214Z,20.90
2022-12-09T21:19:32.334Z,32.72
2022-12-09T21:21:59.070Z,20.48
2022-12-09T21:24:25.957Z,18.73
2022-12-09T21:26:53.279Z,19.50
2022-12-09T21:29:20.274Z,21.15
2022-12-09T21:31:48.642Z,21.02
2022-12-09T21:34:15.386Z,19.45
2022-12-09T21:36:43.268Z,19.38
2022-12-09T21:39:15.000Z,19.75
2022-12-09T21:41:42.436Z,17.88
2022-12-09T21:44:14.110Z,18.63
2022-12-09T21:46:41.441Z,16.13
2022-12-09T21:49:08.128Z,18.80
2022-12-09T21:51:35.262Z,18.67
2022-12-09T21:54:02.777Z,17.20
2022-12-09T21:56:31.427Z,16.65
2022-12-09T21:58:59.013Z,17.77
2022-12-09T22:01:31.864Z,17.70
2022-12-09T22:04:00.336Z,17.55
2022-12-09T22:06:28.860Z,17.02
2022-12-09T22:08:57.273Z,17.38
2022-12-09T22:11:27.744Z,16.33
2022-12-09T22:13:59.807Z,17.50
2022-12-09T22:16:30.305Z,16.52
2022-12-09T22:18:58.962Z,18.20
2022-12-09T22:21:28.250Z,16.90
2022-12-09T22:24:00.669Z,17.30
2022-12-09T22:26:27.574Z,18.58
2022-12-09T22:28:54.718Z,16.33
2022-12-09T22:31:24.177Z,16.73
2022-12-09T22:33:52.779Z,16.02
2022-12-09T22:36:19.934Z,16.33
2022-12-09T22:38:46.958Z,16.85
2022-12-09T22:41:19.055Z,17.08
2022-12-09T22:43:46.124Z,16.38
2022-12-09T22:46:15.617Z,17.02
2022-12-09T22:48:42.820Z,18.13
2022-12-09T22:51:14.978Z,18.05
2022-12-09T22:53:42.066Z,17.30
2022-12-09T22:56:10.322Z,19.02
2022-12-09T22:58:37.337Z,18.92
2022-12-09T23:01:10.448Z,18.45
2022-12-09T23:03:37.516Z,18.58
2022-12-09T23:06:04.440Z,19.38
2022-12-09T23:08:31.228Z,17.30
2022-12-09T23:11:06.901Z,18.38
2022-12-09T23:13:40.448Z,18.17
2022-12-09T23:16:09.149Z,26.95
2022-12-09T23:18:36.495Z,26.60
2022-12-09T23:21:05.968Z,26.05
2022-12-09T23:23:33.143Z,27.17
2022-12-09T23:26:08.418Z,22.60
2022-12-09T23:28:56.143Z,22.42
2022-12-09T23:31:27.470Z,20.13
2022-12-09T23:33:55.030Z,19.70
2022-12-09T23:36:24.841Z,20.52
2022-12-09T23:38:52.779Z,21.02
2022-12-09T23:41:20.719Z,20.98
2022-12-09T23:43:49.001Z,20.95
2022-12-09T23:46:19.469Z,19.33
2022-12-09T23:48:47.547Z,21.30
2022-12-09T23:51:20.213Z,20.58
2022-12-09T23:53:48.391Z,20.42
2022-12-09T23:56:18.320Z,20.88
2022-12-09T23:58:45.717Z,21.08
